createdAt,value
2018-09-20T00:00:03.211Z,48.47
2018-09-20T00:00:38.393Z,48.28
2018-09-20T00:01:13.995Z,48.30
2018-09-20T00:01:49.327Z,48.25
2018-09-20T00:02:24.524Z,48.53
2018-09-20T00:02:59.744Z,47.61
2018-09-20T00:03:35.028Z,47.97
2018-09-20T00:04:10.167Z,47.62
2018-09-20T00:04:45.615Z,48.62
2018-09-20T00:05:20.854Z,48.40
2018-09-20T00:05:56.026Z,48.42
2018-09-20T00:06:31.346Z,47.84
2018-09-20T00:07:06.590Z,48.35
2018-09-20T00:07:41.826Z,48.11
2018-09-20T00:08:17.321Z,48.28
2018-09-20T00:08:52.519Z,48.43
2018-09-20T00:09:27.706Z,47.96
2018-09-20T00:10:03.024Z,48.76
2018-09-20T00:10:38.207Z,48.02
2018-09-20T00:11:14.132Z,47.95
2018-09-20T00:11:49.391Z,47.91
2018-09-20T00:12:24.638Z,48.16
2018-09-20T00:12:59.819Z,48.60
2018-09-20T00:13:34.990Z,47.95
2018-09-20T00:14:10.166Z,48.14
2018-09-20T00:14:45.530Z,48.62
2018-09-20T00:15:20.895Z,48.29
2018-09-20T00:15:56.155Z,48.70
2018-09-20T00:16:31.356Z,48.83
2018-09-20T00:17:06.783Z,48.23
2018-09-20T00:17:42.163Z,48.69
2018-09-20T00:18:17.482Z,48.23
2018-09-20T00:18:52.720Z,49.19
2018-09-20T00:19:27.882Z,48.88
2018-09-20T00:20:03.139Z,48.78
2018-09-20T00:20:38.330Z,48.25
2018-09-20T00:21:13.269Z,48.23
2018-09-20T00:21:48.747Z,48.82
2018-09-20T00:22:24.061Z,48.12
2018-09-20T00:22:59.644Z,48.52
2018-09-20T00:23:34.822Z,48.43
2018-09-20T00:24:10.091Z,48.45
2018-09-20T00:24:45.843Z,48.34
2018-09-20T00:25:21.172Z,48.47
2018-09-20T00:25:56.424Z,48.04
2018-09-20T00:26:31.639Z,48.88
2018-09-20T00:27:07.137Z,48.76
2018-09-20T00:27:42.717Z,48.44
2018-09-20T00:28:18.007Z,49.01
2018-09-20T00:28:53.215Z,47.97
2018-09-20T00:29:28.414Z,48.78
2018-09-20T00:30:03.827Z,48.69
2018-09-20T00:30:39.050Z,48.46
2018-09-20T00:31:14.355Z,48.46
2018-09-20T00:31:49.872Z,48.16
2018-09-20T00:32:25.050Z,48.82
2018-09-20T00:33:00.219Z,48.38
2018-09-20T00:33:35.442Z,48.31
2018-09-20T00:34:10.621Z,48.95
2018-09-20T00:34:45.972Z,48.37
2018-09-20T00:35:21.282Z,48.76
2018-09-20T00:35:56.468Z,48.35
2018-09-20T00:36:31.632Z,47.99
2018-09-20T00:37:06.812Z,48.16
2018-09-20T00:37:42.303Z,48.29
2018-09-20T00:38:17.610Z,49.14
2018-09-20T00:38:52.833Z,48.33
2018-09-20T00:39:28.019Z,48.58
2018-09-20T00:40:03.198Z,48.56
2018-09-20T00:40:38.361Z,48.74
2018-09-20T00:41:13.767Z,48.69
2018-09-20T00:41:49.374Z,49.55
2018-09-20T00:42:24.693Z,49.60
2018-09-20T00:42:59.839Z,49.28
2018-09-20T00:43:35.050Z,48.99
2018-09-20T00:44:11.066Z,49.03
2018-09-20T00:44:46.860Z,48.87
2018-09-20T00:45:22.205Z,49.08
2018-09-20T00:45:57.447Z,49.93
2018-09-20T00:46:32.092Z,49.72
2018-09-20T00:47:07.247Z,49.05
2018-09-20T00:47:42.622Z,49.77
2018-09-20T00:48:17.932Z,49.37
2018-09-20T00:48:55.193Z,49.33
2018-09-20T00:49:30.383Z,49.98
2018-09-20T00:50:05.593Z,49.17
2018-09-20T00:50:40.767Z,49.43
2018-09-20T00:51:16.228Z,49.52
2018-09-20T00:51:51.443Z,49.53
2018-09-20T00:52:26.646Z,49.06
2018-09-20T00:53:01.814Z,49.95
2018-09-20T00:53:37.280Z,49.78
2018-09-20T00:54:12.521Z,49.79
2018-09-20T00:54:47.797Z,49.87
2018-09-20T00:55:23.433Z,50.36
2018-09-20T00:55:58.645Z,49.39
2018-09-20T00:56:33.793Z,49.50
2018-09-20T00:57:08.971Z,50.25
2018-09-20T00:57:44.737Z,50.17
2018-09-20T00:58:19.957Z,49.75
2018-09-20T00:58:55.251Z,49.44
2018-09-20T00:59:30.555Z,49.85
2018-09-20T01:00:05.762Z,49.58
2018-09-20T01:00:40.994Z,49.48
2018-09-20T01:01:16.363Z,50.17
2018-09-20T01:01:51.569Z,50.22
2018-09-20T01:02:26.767Z,50.14
2018-09-20T01:03:01.925Z,50.16
2018-09-20T01:03:37.079Z,49.70
2018-09-20T01:04:12.313Z,49.98
2018-09-20T01:04:47.863Z,49.92
2018-09-20T01:05:23.420Z,49.39
2018-09-20T01:05:58.590Z,49.86
2018-09-20T01:06:33.779Z,49.51
2018-09-20T01:07:08.934Z,49.23
2018-09-20T01:07:44.262Z,49.41
2018-09-20T01:08:19.717Z,49.64
2018-09-20T01:08:54.898Z,49.17
2018-09-20T01:09:30.106Z,49.31
2018-09-20T01:10:05.562Z,49.76
2018-09-20T01:10:40.727Z,49.27
2018-09-20T01:11:16.147Z,50.22
2018-09-20T01:11:52.006Z,49.85
2018-09-20T01:12:27.205Z,49.51
2018-09-20T01:13:02.373Z,50.24
2018-09-20T01:13:37.581Z,50.12
2018-09-20T01:14:12.892Z,49.80
2018-09-20T01:14:49.058Z,49.53
2018-09-20T01:15:24.243Z,50.16
2018-09-20T01:15:59.406Z,49.87
2018-09-20T01:16:34.593Z,49.57
2018-09-20T01:17:09.748Z,49.74
2018-09-20T01:17:45.238Z,50.63
2018-09-20T01:18:21.043Z,50.85
2018-09-20T01:18:56.623Z,50.75
2018-09-20T01:19:31.322Z,50.44
2018-09-20T01:20:06.896Z,49.99
2018-09-20T01:20:42.185Z,50.57
2018-09-20T01:21:17.748Z,50.16
2018-09-20T01:21:52.982Z,49.98
2018-09-20T01:22:28.164Z,49.98
2018-09-20T01:23:03.321Z,50.12
2018-09-20T01:23:38.486Z,49.85
2018-09-20T01:24:13.957Z,50.27
2018-09-20T01:24:49.523Z,49.67
2018-09-20T01:25:24.710Z,49.98
2018-09-20T01:25:59.881Z,50.03
2018-09-20T01:26:35.063Z,50.09
2018-09-20T01:27:10.279Z,50.75
2018-09-20T01:27:45.920Z,50.32
2018-09-20T01:28:21.177Z,50.24
2018-09-20T01:28:56.345Z,50.81
2018-09-20T01:29:31.561Z,50.84
2018-09-20T01:30:07.331Z,50.91
2018-09-20T01:30:42.688Z,50.63
2018-09-20T01:31:18.111Z,51.29
2018-09-20T01:31:53.446Z,50.80
2018-09-20T01:32:28.633Z,50.89
2018-09-20T01:33:03.806Z,51.43
2018-09-20T01:33:38.990Z,50.99
2018-09-20T01:34:14.468Z,50.88
2018-09-20T01:34:49.870Z,51.36
2018-09-20T01:35:25.329Z,50.83
2018-09-20T01:36:00.623Z,51.24
2018-09-20T01:36:35.821Z,50.87
2018-09-20T01:37:11.018Z,51.67
2018-09-20T01:37:46.505Z,50.95
2018-09-20T01:38:21.714Z,51.62
2018-09-20T01:38:56.902Z,51.02
2018-09-20T01:39:32.066Z,52.09
2018-09-20T01:40:07.626Z,51.33
2018-09-20T01:40:43.630Z,51.06
2018-09-20T01:41:19.710Z,51.28
2018-09-20T01:41:54.920Z,50.98
2018-09-20T01:42:30.103Z,51.36
2018-09-20T01:43:05.669Z,51.39
2018-09-20T01:43:41.196Z,50.63
2018-09-20T01:44:16.653Z,51.49
2018-09-20T01:44:52.004Z,50.72
2018-09-20T01:45:27.173Z,50.69
2018-09-20T01:46:02.537Z,50.68
2018-09-20T01:46:37.972Z,51.23
2018-09-20T01:47:13.342Z,50.72
2018-09-20T01:47:48.932Z,50.80
2018-09-20T01:48:24.132Z,51.50
2018-09-20T01:48:59.301Z,51.62
2018-09-20T01:49:34.534Z,51.94
2018-09-20T01:50:10.203Z,52.11
2018-09-20T01:50:46.935Z,51.24
2018-09-20T01:51:22.221Z,51.13
2018-09-20T01:51:57.415Z,51.12
2018-09-20T01:52:32.609Z,51.32
2018-09-20T01:53:07.931Z,51.37
2018-09-20T01:53:43.104Z,51.82
2018-09-20T01:54:18.591Z,51.83
2018-09-20T01:54:53.977Z,51.48
2018-09-20T01:55:29.197Z,51.30
2018-09-20T01:56:04.374Z,51.51
2018-09-20T01:56:39.667Z,51.45
2018-09-20T01:57:14.915Z,52.01
2018-09-20T01:57:50.675Z,51.62
2018-09-20T01:58:25.989Z,51.97
2018-09-20T01:59:01.709Z,51.53
2018-09-20T01:59:36.881Z,51.93
2018-09-20T02:00:12.082Z,52.09
2018-09-20T02:00:47.407Z,52.04
2018-09-20T02:01:22.938Z,51.75
2018-09-20T02:01:58.132Z,52.57
2018-09-20T02:02:33.475Z,52.60
2018-09-20T02:03:08.610Z,52.44
2018-09-20T02:03:43.830Z,51.74
2018-09-20T02:04:19.913Z,52.31
2018-09-20T02:04:55.634Z,51.93
2018-09-20T02:05:31.209Z,52.47
2018-09-20T02:06:06.773Z,51.92
2018-09-20T02:06:41.929Z,52.13
2018-09-20T02:07:17.333Z,52.35
2018-09-20T02:07:52.738Z,51.88
2018-09-20T02:08:27.416Z,51.61
2018-09-20T02:09:02.939Z,52.60
2018-09-20T02:09:38.197Z,52.01
2018-09-20T02:10:13.374Z,52.78
2018-09-20T02:10:48.910Z,52.81
2018-09-20T02:11:24.414Z,52.32
2018-09-20T02:11:59.588Z,52.24
2018-09-20T02:12:34.765Z,52.25
2018-09-20T02:13:09.934Z,51.59
2018-09-20T02:13:45.110Z,52.01
2018-09-20T02:14:20.475Z,52.69
2018-09-20T02:14:55.746Z,52.07
2018-09-20T02:15:31.150Z,52.07
2018-09-20T02:16:06.554Z,52.43
2018-09-20T02:16:41.727Z,52.48
2018-09-20T02:17:17.007Z,52.48
2018-09-20T02:17:52.340Z,52.34
2018-09-20T02:18:27.540Z,52.59
2018-09-20T02:19:02.709Z,52.75
2018-09-20T02:19:37.909Z,52.71
2018-09-20T02:20:13.114Z,52.46
2018-09-20T02:20:48.448Z,52.45
2018-09-20T02:21:23.872Z,52.27
2018-09-20T02:21:59.130Z,52.27
2018-09-20T02:22:34.298Z,53.21
2018-09-20T02:23:09.615Z,53.09
2018-09-20T02:23:44.789Z,52.81
2018-09-20T02:24:20.589Z,52.56
2018-09-20T02:24:56.086Z,52.53
2018-09-20T02:25:31.352Z,52.69
2018-09-20T02:26:06.510Z,53.05
2018-09-20T02:26:41.707Z,53.48
2018-09-20T02:27:16.974Z,53.39
2018-09-20T02:27:52.415Z,53.29
2018-09-20T02:28:27.612Z,53.21
2018-09-20T02:29:02.772Z,52.92
2018-09-20T02:29:38.342Z,53.01
2018-09-20T02:30:13.527Z,53.11
2018-09-20T02:30:49.058Z,52.83
2018-09-20T02:31:24.537Z,53.61
2018-09-20T02:31:59.780Z,52.91
2018-09-20T02:32:34.987Z,53.10
2018-09-20T02:33:10.171Z,53.12
2018-09-20T02:33:45.349Z,53.08
2018-09-20T02:34:20.852Z,53.08
2018-09-20T02:34:56.090Z,53.01
2018-09-20T02:35:31.296Z,53.54
2018-09-20T02:36:06.539Z,53.44
2018-09-20T02:36:41.706Z,53.70
2018-09-20T02:37:17.357Z,53.74
2018-09-20T02:37:52.146Z,52.98
2018-09-20T02:38:27.317Z,53.30
2018-09-20T02:39:02.517Z,53.76
2018-09-20T02:39:37.755Z,52.94
2018-09-20T02:40:12.977Z,53.66
2018-09-20T02:40:48.530Z,53.86
2018-09-20T02:41:23.403Z,53.22
2018-09-20T02:41:58.623Z,53.59
2018-09-20T02:42:33.800Z,53.73
2018-09-20T02:43:08.989Z,53.24
2018-09-20T02:43:44.155Z,53.28
2018-09-20T02:44:19.653Z,53.16
2018-09-20T02:44:55.230Z,53.14
2018-09-20T02:45:31.163Z,53.91
2018-09-20T02:46:06.382Z,53.20
2018-09-20T02:46:41.796Z,52.94
2018-09-20T02:47:17.326Z,53.16
2018-09-20T02:47:52.585Z,53.66
2018-09-20T02:48:27.803Z,52.90
2018-09-20T02:49:03.011Z,53.68
2018-09-20T02:49:38.171Z,53.87
2018-09-20T02:50:13.402Z,52.89
2018-09-20T02:50:48.978Z,53.90
2018-09-20T02:51:24.434Z,53.62
2018-09-20T02:51:59.665Z,52.94
2018-09-20T02:52:34.867Z,52.96
2018-09-20T02:53:10.042Z,53.48
2018-09-20T02:53:45.780Z,53.12
2018-09-20T02:54:21.128Z,53.51
2018-09-20T02:54:56.369Z,53.17
2018-09-20T02:55:31.631Z,53.11
2018-09-20T02:56:06.812Z,53.11
2018-09-20T02:56:41.979Z,53.32
2018-09-20T02:57:18.040Z,53.07
2018-09-20T02:57:53.323Z,53.58
2018-09-20T02:58:28.566Z,53.25
2018-09-20T02:59:03.807Z,52.59
2018-09-20T02:59:39.200Z,53.45
2018-09-20T03:00:14.375Z,52.78
2018-09-20T03:00:49.885Z,53.10
2018-09-20T03:01:25.278Z,52.78
2018-09-20T03:02:00.482Z,52.38
2018-09-20T03:02:35.670Z,54.08
2018-09-20T03:03:10.834Z,53.83
2018-09-20T03:03:46.399Z,53.06
2018-09-20T03:04:21.763Z,53.14
2018-09-20T03:04:57.229Z,53.25
2018-09-20T03:05:32.419Z,53.47
2018-09-20T03:06:07.644Z,53.56
2018-09-20T03:06:42.828Z,53.64
2018-09-20T03:07:18.841Z,53.64
2018-09-20T03:07:54.145Z,52.96
2018-09-20T03:08:29.511Z,52.81
2018-09-20T03:09:06.882Z,53.55
2018-09-20T03:09:42.052Z,53.78
2018-09-20T03:10:17.504Z,53.46
2018-09-20T03:10:52.963Z,53.78
2018-09-20T03:11:28.547Z,53.52
2018-09-20T03:12:03.881Z,53.31
2018-09-20T03:12:39.117Z,53.29
2018-09-20T03:13:14.388Z,53.57
2018-09-20T03:13:49.951Z,52.91
2018-09-20T03:14:25.290Z,53.84
2018-09-20T03:15:00.542Z,53.02
2018-09-20T03:15:35.824Z,53.55
2018-09-20T03:16:11.048Z,53.74
2018-09-20T03:16:46.465Z,53.12
2018-09-20T03:17:21.930Z,53.35
2018-09-20T03:17:57.222Z,52.93
2018-09-20T03:18:32.491Z,53.19
2018-09-20T03:19:07.902Z,53.76
2018-09-20T03:19:43.267Z,53.51
2018-09-20T03:20:18.691Z,53.63
2018-09-20T03:20:54.073Z,53.12
2018-09-20T03:21:29.318Z,52.64
2018-09-20T03:22:04.737Z,53.45
2018-09-20T03:22:39.890Z,53.59
2018-09-20T03:23:15.058Z,53.68
2018-09-20T03:23:50.557Z,53.74
2018-09-20T03:24:26.069Z,54.19
2018-09-20T03:25:01.278Z,53.59
2018-09-20T03:25:36.454Z,53.95
2018-09-20T03:26:11.650Z,53.49
2018-09-20T03:26:46.975Z,53.29
2018-09-20T03:27:22.336Z,53.30
2018-09-20T03:27:57.663Z,53.52
2018-09-20T03:28:32.844Z,54.35
2018-09-20T03:29:08.014Z,54.23
2018-09-20T03:29:43.201Z,53.67
2018-09-20T03:30:18.840Z,53.95
2018-09-20T03:30:54.608Z,54.58
2018-09-20T03:31:29.919Z,55.04
2018-09-20T03:32:05.104Z,54.10
2018-09-20T03:32:40.531Z,54.15
2018-09-20T03:33:15.894Z,54.33
2018-09-20T03:33:51.722Z,54.87
2018-09-20T03:34:27.108Z,54.79
2018-09-20T03:35:02.491Z,54.76
2018-09-20T03:35:37.822Z,55.03
2018-09-20T03:36:13.239Z,55.29
2018-09-20T03:36:48.178Z,54.84
2018-09-20T03:37:23.805Z,55.62
2018-09-20T03:37:59.057Z,55.30
2018-09-20T03:38:34.235Z,55.52
2018-09-20T03:39:10.643Z,55.45
2018-09-20T03:39:46.429Z,55.17
2018-09-20T03:40:21.803Z,55.11
2018-09-20T03:40:57.117Z,54.96
2018-09-20T03:41:32.334Z,55.01
2018-09-20T03:42:07.578Z,55.07
2018-09-20T03:42:42.780Z,55.46
2018-09-20T03:43:18.146Z,55.09
2018-09-20T03:43:53.595Z,55.50
2018-09-20T03:44:29.007Z,55.62
2018-09-20T03:45:04.223Z,56.02
2018-09-20T03:45:39.423Z,56.06
2018-09-20T03:46:14.651Z,55.38
2018-09-20T03:46:50.088Z,55.64
2018-09-20T03:47:25.630Z,54.97
2018-09-20T03:48:00.901Z,54.85
2018-09-20T03:48:36.059Z,55.62
2018-09-20T03:49:11.263Z,56.07
2018-09-20T03:49:46.551Z,56.13
2018-09-20T03:50:22.277Z,55.66
2018-09-20T03:50:57.696Z,55.87
2018-09-20T03:51:32.905Z,55.61
2018-09-20T03:52:08.084Z,55.80
2018-09-20T03:52:43.287Z,56.38
2018-09-20T03:53:18.645Z,55.76
2018-09-20T03:53:54.063Z,56.35
2018-09-20T03:54:29.352Z,56.34
2018-09-20T03:55:04.607Z,56.42
2018-09-20T03:55:39.823Z,55.80
2018-09-20T03:56:15.016Z,55.68
2018-09-20T03:56:50.845Z,55.69
2018-09-20T03:57:26.224Z,56.08
2018-09-20T03:58:01.460Z,55.48
2018-09-20T03:58:36.653Z,55.74
2018-09-20T03:59:11.889Z,55.48
2018-09-20T03:59:47.338Z,56.39
2018-09-20T04:00:23.036Z,56.75
2018-09-20T04:00:58.310Z,56.68
2018-09-20T04:01:33.492Z,55.79
2018-09-20T04:02:08.743Z,56.06
2018-09-20T04:02:43.954Z,56.00
2018-09-20T04:03:19.430Z,56.34
2018-09-20T04:03:54.866Z,56.76
2018-09-20T04:04:30.074Z,56.52
2018-09-20T04:05:05.670Z,56.43
2018-09-20T04:05:40.971Z,57.10
2018-09-20T04:06:16.362Z,56.42
2018-09-20T04:06:51.759Z,56.42
2018-09-20T04:07:26.603Z,56.46
2018-09-20T04:08:01.822Z,56.34
2018-09-20T04:08:37.025Z,56.62
2018-09-20T04:09:12.945Z,55.85
2018-09-20T04:09:48.603Z,56.07
2018-09-20T04:10:23.780Z,56.33
2018-09-20T04:10:59.421Z,56.24
2018-09-20T04:11:34.614Z,56.26
2018-09-20T04:12:09.923Z,56.43
2018-09-20T04:12:45.224Z,56.72
2018-09-20T04:13:20.987Z,57.21
2018-09-20T04:13:56.390Z,56.37
2018-09-20T04:14:31.582Z,57.00
2018-09-20T04:15:07.105Z,56.96
2018-09-20T04:15:42.466Z,56.80
2018-09-20T04:16:18.034Z,56.31
2018-09-20T04:16:53.375Z,56.13
2018-09-20T04:17:28.661Z,56.43
2018-09-20T04:18:04.221Z,56.59
2018-09-20T04:18:39.481Z,56.71
2018-09-20T04:19:14.703Z,56.92
2018-09-20T04:19:50.015Z,56.50
2018-09-20T04:20:25.449Z,56.99
2018-09-20T04:21:00.968Z,56.23
2018-09-20T04:21:36.380Z,56.29
2018-09-20T04:22:11.620Z,57.29
2018-09-20T04:22:47.218Z,57.04
2018-09-20T04:23:22.705Z,56.64
2018-09-20T04:23:58.263Z,56.83
2018-09-20T04:24:33.540Z,57.18
2018-09-20T04:25:09.123Z,57.29
2018-09-20T04:25:44.336Z,56.86
2018-09-20T04:26:19.200Z,57.51
2018-09-20T04:26:53.975Z,56.81
2018-09-20T04:27:28.840Z,57.05
2018-09-20T04:28:04.433Z,56.92
2018-09-20T04:28:39.629Z,57.09
2018-09-20T04:29:14.845Z,57.19
2018-09-20T04:29:50.396Z,57.31
2018-09-20T04:30:26.036Z,57.20
2018-09-20T04:31:01.327Z,56.88
2018-09-20T04:31:36.621Z,57.59
2018-09-20T04:32:11.999Z,57.62
2018-09-20T04:32:47.693Z,57.09
2018-09-20T04:33:23.117Z,57.17
2018-09-20T04:34:00.011Z,57.42
2018-09-20T04:34:35.227Z,57.37
2018-09-20T04:35:10.593Z,56.53
2018-09-20T04:35:46.228Z,56.94
2018-09-20T04:36:21.777Z,57.35
2018-09-20T04:36:57.107Z,57.57
2018-09-20T04:37:32.330Z,57.14
2018-09-20T04:38:07.578Z,57.30
2018-09-20T04:38:42.803Z,57.33
2018-09-20T04:39:19.182Z,56.43
2018-09-20T04:39:54.578Z,57.16
2018-09-20T04:40:29.839Z,57.16
2018-09-20T04:41:05.186Z,57.51
2018-09-20T04:41:40.429Z,57.10
2018-09-20T04:42:15.672Z,57.11
2018-09-20T04:42:51.166Z,56.42
2018-09-20T04:43:26.538Z,56.81
2018-09-20T04:44:01.811Z,56.48
2018-09-20T04:44:37.020Z,56.57
2018-09-20T04:45:12.219Z,56.64
2018-09-20T04:45:47.546Z,56.46
2018-09-20T04:46:23.382Z,57.17
2018-09-20T04:46:58.793Z,56.67
2018-09-20T04:47:34.062Z,57.28
2018-09-20T04:48:09.282Z,57.14
2018-09-20T04:48:44.512Z,56.72
2018-09-20T04:49:20.072Z,57.05
2018-09-20T04:49:55.504Z,56.97
2018-09-20T04:50:30.842Z,56.58
2018-09-20T04:51:06.147Z,56.21
2018-09-20T04:51:41.350Z,57.21
2018-09-20T04:52:16.808Z,56.59
2018-09-20T04:52:52.452Z,57.21
2018-09-20T04:53:27.797Z,56.35
2018-09-20T04:54:03.246Z,56.96
2018-09-20T04:54:38.431Z,56.50
2018-09-20T04:55:13.702Z,56.05
2018-09-20T04:55:49.527Z,56.05
2018-09-20T04:56:25.335Z,56.54
2018-09-20T04:57:00.649Z,56.80
2018-09-20T04:57:36.190Z,56.06
2018-09-20T04:58:11.383Z,56.92
2018-09-20T04:58:46.808Z,56.18
2018-09-20T04:59:22.138Z,55.73
2018-09-20T04:59:57.542Z,55.42
2018-09-20T05:00:32.949Z,55.45
2018-09-20T05:01:08.661Z,56.01
2018-09-20T05:01:43.900Z,55.90
2018-09-20T05:02:19.245Z,56.01
2018-09-20T05:02:54.871Z,56.24
2018-09-20T05:03:30.294Z,55.78
2018-09-20T05:04:05.522Z,56.48
2018-09-20T05:04:40.754Z,56.20
2018-09-20T05:05:15.982Z,56.80
2018-09-20T05:05:51.658Z,56.33
2018-09-20T05:06:26.939Z,56.42
2018-09-20T05:07:02.193Z,56.45
2018-09-20T05:07:37.431Z,56.69
2018-09-20T05:08:12.615Z,56.20
2018-09-20T05:08:48.267Z,56.84
2018-09-20T05:09:23.569Z,56.32
2018-09-20T05:09:59.479Z,56.34
2018-09-20T05:10:34.670Z,56.99
2018-09-20T05:11:09.925Z,56.05
2018-09-20T05:11:45.183Z,56.84
2018-09-20T05:12:20.453Z,56.67
2018-09-20T05:12:55.714Z,56.27
2018-09-20T05:13:30.931Z,56.13
2018-09-20T05:14:06.175Z,56.74
2018-09-20T05:14:41.497Z,56.61
2018-09-20T05:15:16.207Z,56.44
2018-09-20T05:15:51.823Z,56.58
2018-09-20T05:16:27.320Z,56.31
2018-09-20T05:17:02.599Z,55.75
2018-09-20T05:17:37.848Z,55.61
2018-09-20T05:18:13.266Z,55.78
2018-09-20T05:18:48.678Z,56.15
2018-09-20T05:19:24.158Z,56.12
2018-09-20T05:19:59.690Z,55.89
2018-09-20T05:20:35.044Z,56.87
2018-09-20T05:21:10.214Z,56.05
2018-09-20T05:21:45.567Z,56.50
2018-09-20T05:22:20.877Z,56.10
2018-09-20T05:22:56.435Z,56.33
2018-09-20T05:23:31.658Z,56.16
2018-09-20T05:24:07.187Z,56.61
2018-09-20T05:24:42.449Z,56.62
2018-09-20T05:25:17.833Z,56.90
2018-09-20T05:25:53.221Z,57.02
2018-09-20T05:26:28.496Z,56.64
2018-09-20T05:27:03.738Z,57.28
2018-09-20T05:27:38.940Z,57.47
2018-09-20T05:28:14.219Z,56.59
2018-09-20T05:28:50.160Z,56.30
2018-09-20T05:29:25.459Z,56.61
2018-09-20T05:30:01.341Z,56.43
2018-09-20T05:30:36.630Z,56.92
2018-09-20T05:31:11.849Z,57.04
2018-09-20T05:31:47.630Z,55.92
2018-09-20T05:32:23.603Z,56.54
2018-09-20T05:32:58.610Z,56.35
2018-09-20T05:33:33.843Z,56.91
2018-09-20T05:34:09.090Z,57.30
2018-09-20T05:34:44.331Z,57.25
2018-09-20T05:35:19.833Z,56.60
2018-09-20T05:35:55.557Z,56.77
2018-09-20T05:36:30.792Z,57.53
2018-09-20T05:37:06.362Z,57.14
2018-09-20T05:37:41.556Z,56.60
2018-09-20T05:38:16.807Z,57.17
2018-09-20T05:38:52.099Z,57.26
2018-09-20T05:39:27.434Z,57.34
2018-09-20T05:40:02.666Z,57.02
2018-09-20T05:40:37.393Z,57.15
2018-09-20T05:41:12.691Z,57.18
2018-09-20T05:41:48.136Z,57.38
2018-09-20T05:42:23.520Z,57.39
2018-09-20T05:42:58.938Z,57.40
2018-09-20T05:43:34.210Z,57.15
2018-09-20T05:44:10.651Z,57.56
2018-09-20T05:44:46.129Z,56.76
2018-09-20T05:45:21.480Z,56.82
2018-09-20T05:45:56.862Z,57.11
2018-09-20T05:46:32.134Z,56.79
2018-09-20T05:47:07.718Z,57.47
2018-09-20T05:47:42.476Z,56.68
2018-09-20T05:48:17.833Z,57.40
2018-09-20T05:48:53.208Z,57.56
2018-09-20T05:49:28.598Z,56.76
2018-09-20T05:50:10.551Z,57.10
2018-09-20T05:50:46.127Z,57.52
2018-09-20T05:51:21.656Z,57.12
2018-09-20T05:51:56.998Z,57.75
2018-09-20T05:52:32.206Z,57.47
2018-09-20T05:53:07.774Z,57.59
2018-09-20T05:53:43.026Z,57.58
2018-09-20T05:54:18.678Z,57.40
2018-09-20T05:54:54.049Z,57.71
2018-09-20T05:55:29.411Z,57.76
2018-09-20T05:56:05.004Z,57.36
2018-09-20T05:56:40.222Z,57.69
2018-09-20T05:57:15.636Z,57.68
2018-09-20T05:57:51.036Z,57.03
2018-09-20T05:58:26.324Z,57.43
2018-09-20T05:59:01.601Z,57.48
2018-09-20T05:59:37.195Z,57.04
2018-09-20T06:00:12.426Z,57.00
2018-09-20T06:00:47.808Z,56.95
2018-09-20T06:01:23.102Z,57.72
2018-09-20T06:01:58.462Z,56.79
2018-09-20T06:02:33.720Z,57.07
2018-09-20T06:03:08.998Z,57.16
2018-09-20T06:03:44.356Z,56.45
2018-09-20T06:04:19.798Z,56.54
2018-09-20T06:04:55.128Z,56.63
2018-09-20T06:05:30.388Z,56.85
2018-09-20T06:06:05.619Z,56.55
2018-09-20T06:06:40.809Z,56.02
2018-09-20T06:07:16.037Z,57.09
2018-09-20T06:07:51.303Z,56.61
2018-09-20T06:08:26.758Z,57.71
2018-09-20T06:09:01.957Z,56.98
2018-09-20T06:09:37.139Z,57.67
2018-09-20T06:10:12.355Z,57.04
2018-09-20T06:10:47.481Z,57.29
2018-09-20T06:11:22.827Z,57.23
2018-09-20T06:11:58.218Z,57.78
2018-09-20T06:12:33.438Z,57.32
2018-09-20T06:13:08.702Z,57.59
2018-09-20T06:13:44.082Z,57.55
2018-09-20T06:14:19.850Z,57.07
2018-09-20T06:14:55.358Z,57.48
2018-09-20T06:15:30.601Z,56.82
2018-09-20T06:16:05.839Z,57.71
2018-09-20T06:16:41.026Z,57.60
2018-09-20T06:17:16.316Z,56.94
2018-09-20T06:17:51.820Z,57.13
2018-09-20T06:18:27.535Z,56.58
2018-09-20T06:19:02.915Z,57.04
2018-09-20T06:19:38.164Z,56.36
2018-09-20T06:20:13.377Z,56.64
2018-09-20T06:20:48.358Z,56.87
2018-09-20T06:21:23.728Z,56.81
2018-09-20T06:21:59.228Z,56.54
2018-09-20T06:22:34.469Z,57.24
2018-09-20T06:23:09.702Z,57.21
2018-09-20T06:23:44.975Z,57.39
2018-09-20T06:24:20.736Z,56.70
2018-09-20T06:24:56.411Z,56.78
2018-09-20T06:25:31.666Z,57.02
2018-09-20T06:26:06.937Z,57.12
2018-09-20T06:26:42.215Z,57.31
2018-09-20T06:27:17.808Z,57.37
2018-09-20T06:27:53.182Z,56.96
2018-09-20T06:28:28.460Z,56.90
2018-09-20T06:29:03.758Z,57.21
2018-09-20T06:29:39.019Z,56.75
2018-09-20T06:30:14.215Z,57.19
2018-09-20T06:30:49.717Z,57.26
2018-09-20T06:31:25.398Z,57.16
2018-09-20T06:32:00.591Z,56.97
2018-09-20T06:32:35.834Z,57.32
2018-09-20T06:33:11.048Z,56.37
2018-09-20T06:33:46.503Z,56.79
2018-09-20T06:34:21.854Z,57.26
2018-09-20T06:34:57.226Z,57.00
2018-09-20T06:35:33.496Z,57.31
2018-09-20T06:36:08.755Z,56.85
2018-09-20T06:36:43.997Z,57.39
2018-09-20T06:37:19.813Z,57.69
2018-09-20T06:37:55.193Z,57.46
2018-09-20T06:38:30.427Z,57.72
2018-09-20T06:39:08.731Z,57.82
2018-09-20T06:39:44.014Z,57.36
2018-09-20T06:40:20.267Z,57.57
2018-09-20T06:40:56.146Z,58.00
2018-09-20T06:41:31.586Z,57.80
2018-09-20T06:42:06.905Z,58.32
2018-09-20T06:42:42.116Z,58.19
2018-09-20T06:43:17.507Z,58.06
2018-09-20T06:43:52.918Z,58.20
2018-09-20T06:44:28.609Z,58.38
2018-09-20T06:45:03.855Z,57.82
2018-09-20T06:45:39.210Z,58.23
2018-09-20T06:46:14.610Z,57.45
2018-09-20T06:46:50.099Z,57.70
2018-09-20T06:47:25.803Z,57.96
2018-09-20T06:48:01.055Z,57.96
2018-09-20T06:48:36.301Z,58.02
2018-09-20T06:49:11.702Z,57.60
2018-09-20T06:49:47.050Z,57.31
2018-09-20T06:50:22.781Z,57.29
2018-09-20T06:50:58.762Z,57.22
2018-09-20T06:51:33.996Z,57.50
2018-09-20T06:52:09.213Z,57.04
2018-09-20T06:52:44.438Z,57.30
2018-09-20T06:53:20.030Z,57.33
2018-09-20T06:53:55.590Z,57.78
2018-09-20T06:54:30.899Z,57.69
2018-09-20T06:55:06.264Z,57.78
2018-09-20T06:55:41.550Z,57.83
2018-09-20T06:56:16.840Z,57.15
2018-09-20T06:56:52.390Z,56.51
2018-09-20T06:57:32.133Z,56.74
2018-09-20T06:58:07.490Z,57.18
2018-09-20T06:58:43.071Z,56.62
2018-09-20T06:59:18.743Z,56.82
2018-09-20T06:59:54.173Z,57.48
2018-09-20T07:00:29.778Z,57.25
2018-09-20T07:01:05.018Z,57.06
2018-09-20T07:01:40.285Z,56.63
2018-09-20T07:02:16.014Z,57.41
2018-09-20T07:02:51.633Z,56.65
2018-09-20T07:03:27.419Z,57.08
2018-09-20T07:04:03.374Z,56.59
2018-09-20T07:04:38.618Z,56.77
2018-09-20T07:05:13.886Z,57.08
2018-09-20T07:05:49.650Z,57.03
2018-09-20T07:06:25.615Z,56.91
2018-09-20T07:07:02.216Z,56.82
2018-09-20T07:07:37.476Z,57.47
2018-09-20T07:08:12.718Z,57.51
2018-09-20T07:08:48.371Z,56.66
2018-09-20T07:09:24.068Z,57.30
2018-09-20T07:09:59.380Z,56.83
2018-09-20T07:10:34.788Z,57.29
2018-09-20T07:11:10.020Z,56.86
2018-09-20T07:11:45.627Z,56.92
2018-09-20T07:12:21.370Z,57.08
2018-09-20T07:12:56.724Z,57.06
2018-09-20T07:13:32.088Z,57.16
2018-09-20T07:14:07.330Z,56.21
2018-09-20T07:14:42.546Z,55.70
2018-09-20T07:15:17.913Z,55.77
2018-09-20T07:15:53.453Z,55.72
2018-09-20T07:16:28.848Z,55.73
2018-09-20T07:17:04.183Z,56.71
2018-09-20T07:17:39.374Z,55.96
2018-09-20T07:18:15.091Z,56.17
2018-09-20T07:18:50.798Z,56.47
2018-09-20T07:19:26.115Z,55.87
2018-09-20T07:20:01.445Z,56.06
2018-09-20T07:20:36.669Z,55.91
2018-09-20T07:21:12.202Z,56.30
2018-09-20T07:21:47.818Z,56.37
2018-09-20T07:22:23.379Z,55.01
2018-09-20T07:22:58.698Z,55.15
2018-09-20T07:23:34.045Z,55.37
2018-09-20T07:24:09.274Z,55.62
2018-09-20T07:24:44.598Z,55.11
2018-09-20T07:25:20.362Z,55.79
2018-09-20T07:25:55.793Z,55.55
2018-09-20T07:26:31.360Z,55.81
2018-09-20T07:27:06.647Z,55.50
2018-09-20T07:27:41.880Z,55.42
2018-09-20T07:28:17.206Z,55.74
2018-09-20T07:28:52.622Z,55.03
2018-09-20T07:29:27.846Z,55.43
2018-09-20T07:30:03.097Z,54.89
2018-09-20T07:30:38.341Z,55.76
2018-09-20T07:31:13.579Z,55.24
2018-09-20T07:31:49.093Z,55.74
2018-09-20T07:32:24.428Z,55.43
2018-09-20T07:32:59.877Z,55.26
2018-09-20T07:33:35.162Z,54.69
2018-09-20T07:34:10.498Z,54.46
2018-09-20T07:34:45.708Z,54.30
2018-09-20T07:35:21.423Z,54.50